White Oak, Georgia
Current Conditions -  °F | °C
As of 2:53 AM on Sunday 23 Nov 2014 (Local Time) from KSSI Reporting Station
Light Rain Light Rain  
Wind Chill: 63°   Ceiling: 5500
Heat Index: 63°   Visibility: 9mi
Dew Point: 62°   Wind: 12mph
Humidity: 97%   Direction: 100°E
Pressure: 30.08"   Gusts: 22mph
Location:  31.03°N, 81.73°W
Report Text: KSSI 230753Z AUTO 10010G19KT 9SM -RA OVC055 17/17 A3008 RMK AO2 SLP185 P0001 T01720167
Loading
Personal Weather Stations






























Interactive Weather Map New forecast layout! Learn more

10-Day Weather Forecast

Advertisements
Track Severe Weather on mobile